createdAt,value
2023-12-10T00:02:07.334Z,-0.02
2023-12-10T00:04:56.348Z,0.00
2023-12-10T00:07:36.546Z,0.00
2023-12-10T00:10:23.931Z,0.00
2023-12-10T00:13:03.094Z,0.00
2023-12-10T00:15:55.148Z,0.00
2023-12-10T00:18:36.928Z,0.00
2023-12-10T00:21:27.088Z,0.00
2023-12-10T00:24:02.765Z,0.10
2023-12-10T00:26:45.882Z,0.08
2023-12-10T00:32:41.938Z,0.10
2023-12-10T00:35:17.486Z,0.10
2023-12-10T00:37:54.494Z,0.12
2023-12-10T00:40:30.725Z,0.20
2023-12-10T00:43:09.265Z,0.20
2023-12-10T00:45:48.057Z,0.20
2023-12-10T00:48:42.727Z,0.30
2023-12-10T00:51:26.963Z,0.30
2023-12-10T00:54:06.156Z,0.30
2023-12-10T00:56:50.594Z,0.30
2023-12-10T00:59:24.456Z,0.30
2023-12-10T01:01:59.963Z,0.36
2023-12-10T01:04:33.734Z,0.38
2023-12-10T01:07:08.533Z,0.40
2023-12-10T01:09:42.798Z,0.30
2023-12-10T01:12:20.187Z,0.30
2023-12-10T01:14:54.043Z,0.30
2023-12-10T01:17:41.903Z,0.30
2023-12-10T01:20:28.133Z,0.30
2023-12-10T01:23:11.986Z,0.30
2023-12-10T01:25:50.997Z,0.30
2023-12-10T01:28:41.190Z,0.30
2023-12-10T01:31:18.728Z,0.30
2023-12-10T01:33:52.834Z,0.30
2023-12-10T01:36:27.673Z,0.30
2023-12-10T01:39:04.897Z,0.30
2023-12-10T01:41:38.719Z,0.30
2023-12-10T01:44:13.483Z,0.30
2023-12-10T01:46:47.763Z,0.28
2023-12-10T01:49:24.510Z,0.24
2023-12-10T01:51:58.981Z,0.20
2023-12-10T01:54:32.998Z,0.20
2023-12-10T01:57:09.031Z,0.20
2023-12-10T01:59:43.420Z,0.10
2023-12-10T02:02:17.185Z,0.10
2023-12-10T02:04:55.507Z,0.00
2023-12-10T02:07:32.875Z,0.00
2023-12-10T02:10:10.956Z,0.00
2023-12-10T02:12:46.468Z,0.00
2023-12-10T02:15:28.269Z,0.00
2023-12-10T02:18:02.174Z,0.10
2023-12-10T02:20:36.286Z,0.20
2023-12-10T02:23:33.912Z,0.20
2023-12-10T02:26:08.237Z,0.30
2023-12-10T02:28:43.781Z,0.40
2023-12-10T02:31:19.743Z,0.40
2023-12-10T02:33:53.680Z,0.50
2023-12-10T02:36:27.855Z,0.50
2023-12-10T02:39:01.599Z,0.50
2023-12-10T02:41:35.517Z,0.52
2023-12-10T02:44:09.479Z,0.60
2023-12-10T02:46:47.267Z,0.60
2023-12-10T02:49:21.010Z,0.70
2023-12-10T02:51:54.868Z,0.70
2023-12-10T02:54:28.635Z,0.80
2023-12-10T02:57:02.468Z,0.80
2023-12-10T02:59:36.530Z,0.84
2023-12-10T03:02:10.235Z,0.90
2023-12-10T03:04:44.319Z,0.90
2023-12-10T03:07:20.746Z,0.96
2023-12-10T03:09:54.531Z,1.00
2023-12-10T03:12:28.666Z,1.00
2023-12-10T03:15:03.465Z,1.00
2023-12-10T03:17:37.285Z,1.00
2023-12-10T03:20:14.024Z,1.00
2023-12-10T03:22:47.829Z,1.08
2023-12-10T03:25:23.934Z,1.10
2023-12-10T03:27:59.203Z,1.12
2023-12-10T03:30:33.027Z,1.20
2023-12-10T03:33:08.094Z,1.24
2023-12-10T03:35:41.729Z,1.30
2023-12-10T03:38:15.438Z,1.30
2023-12-10T03:40:49.079Z,1.40
2023-12-10T03:43:25.671Z,1.40
2023-12-10T03:45:59.341Z,1.40
2023-12-10T03:48:33.285Z,1.42
2023-12-10T03:51:08.735Z,1.48
2023-12-10T03:53:42.481Z,1.50
2023-12-10T03:56:16.341Z,1.50
2023-12-10T03:58:52.800Z,1.50
2023-12-10T04:01:26.620Z,1.52
2023-12-10T04:04:00.786Z,1.60
2023-12-10T04:06:34.747Z,1.60
2023-12-10T04:09:08.623Z,1.50
2023-12-10T04:11:43.478Z,1.50
2023-12-10T04:14:17.769Z,1.50
2023-12-10T04:16:51.633Z,1.40
2023-12-10T04:19:25.491Z,1.50
2023-12-10T04:21:59.299Z,1.50
2023-12-10T04:24:33.510Z,1.50
2023-12-10T04:27:07.811Z,1.50
2023-12-10T04:29:41.506Z,1.50
2023-12-10T04:32:15.712Z,1.50
2023-12-10T04:34:51.051Z,1.54
2023-12-10T04:37:24.939Z,1.50
2023-12-10T04:39:59.298Z,1.50
2023-12-10T04:42:33.326Z,1.48
2023-12-10T04:45:09.830Z,1.44
2023-12-10T04:47:43.578Z,1.40
2023-12-10T04:50:17.396Z,1.40
2023-12-10T04:52:51.122Z,1.40
2023-12-10T04:55:24.774Z,1.40
2023-12-10T04:57:58.388Z,1.30
2023-12-10T05:00:32.328Z,1.30
2023-12-10T05:03:06.951Z,1.30
2023-12-10T05:05:41.072Z,1.30
2023-12-10T05:08:14.769Z,1.30
2023-12-10T05:10:48.763Z,1.30
2023-12-10T05:13:22.603Z,1.30
2023-12-10T05:15:58.576Z,1.30
2023-12-10T05:18:33.728Z,1.30
2023-12-10T05:21:10.529Z,1.30
2023-12-10T05:23:46.754Z,1.36
2023-12-10T06:32:03.601Z,1.68
2023-12-10T06:34:37.563Z,1.70
2023-12-10T06:37:11.743Z,1.60
2023-12-10T06:39:45.375Z,1.60
2023-12-10T06:42:20.578Z,1.56
2023-12-10T06:44:56.195Z,1.50
2023-12-10T06:47:30.463Z,1.50
2023-12-10T06:50:05.129Z,1.50
2023-12-10T06:52:41.877Z,1.50
2023-12-10T06:55:16.040Z,1.52
2023-12-10T06:57:49.811Z,1.54
2023-12-10T07:00:33.495Z,1.58
2023-12-10T07:03:07.821Z,1.60
2023-12-10T07:05:41.879Z,1.60
2023-12-10T07:08:19.994Z,1.60
2023-12-10T07:10:53.976Z,1.60
2023-12-10T07:13:27.740Z,1.70
2023-12-10T07:16:05.592Z,1.70
2023-12-10T07:18:40.592Z,1.80
2023-12-10T07:21:15.727Z,1.80
2023-12-10T07:23:49.944Z,1.90
2023-12-10T07:26:31.644Z,1.90
2023-12-10T07:29:05.362Z,1.90
2023-12-10T07:31:39.091Z,1.90
2023-12-10T07:34:15.508Z,1.90
2023-12-10T07:36:49.934Z,1.90
2023-12-10T07:39:23.660Z,1.90
2023-12-10T07:41:57.571Z,1.90
2023-12-10T07:44:31.549Z,1.90
2023-12-10T07:47:05.258Z,1.90
2023-12-10T07:49:39.738Z,1.90
2023-12-10T07:52:13.931Z,1.90
2023-12-10T07:54:50.506Z,1.90
2023-12-10T07:57:24.455Z,1.90
2023-12-10T07:59:58.719Z,1.90
2023-12-10T08:02:33.234Z,1.90
2023-12-10T08:05:07.369Z,1.90
2023-12-10T08:07:41.786Z,1.90
2023-12-10T08:10:16.189Z,1.94
2023-12-10T08:12:52.442Z,2.00
2023-12-10T08:15:26.416Z,2.00
2023-12-10T08:18:01.785Z,2.00
2023-12-10T08:20:37.195Z,2.08
2023-12-10T08:23:14.268Z,2.10
2023-12-10T08:25:48.583Z,2.16
2023-12-10T08:28:22.722Z,2.20
2023-12-10T08:30:57.318Z,2.26
2023-12-10T08:33:31.650Z,2.30
2023-12-10T08:36:05.861Z,2.30
2023-12-10T08:38:40.490Z,2.34
2023-12-10T08:41:14.485Z,2.40
2023-12-10T08:43:48.281Z,2.40
2023-12-10T08:46:22.279Z,2.40
2023-12-10T08:48:56.874Z,2.40
2023-12-10T08:51:30.989Z,2.40
2023-12-10T08:54:04.779Z,2.40
2023-12-10T08:56:38.430Z,2.38
2023-12-10T08:59:12.352Z,2.40
2023-12-10T09:01:46.216Z,2.40
2023-12-10T09:04:20.167Z,2.40
2023-12-10T09:06:57.064Z,2.40
2023-12-10T09:09:31.055Z,2.34
2023-12-10T09:12:05.279Z,2.30
2023-12-10T09:14:39.607Z,2.38
2023-12-10T09:17:13.288Z,2.40
2023-12-10T09:19:47.157Z,2.38
2023-12-10T09:22:26.230Z,2.32
2023-12-10T09:25:00.752Z,2.30
2023-12-10T09:27:34.803Z,2.30
2023-12-10T09:30:10.711Z,2.30
2023-12-10T09:32:50.355Z,2.30
2023-12-10T09:35:24.146Z,2.30
2023-12-10T09:37:57.887Z,2.30
2023-12-10T09:40:32.856Z,2.30
2023-12-10T09:43:20.055Z,2.30
2023-12-10T09:45:56.627Z,2.40
2023-12-10T09:48:31.368Z,2.40
2023-12-10T09:51:08.497Z,2.42
2023-12-10T09:53:42.357Z,2.50
2023-12-10T09:56:16.397Z,2.50
2023-12-10T09:58:51.082Z,2.60
2023-12-10T10:01:29.106Z,2.70
2023-12-10T10:05:00.988Z,2.70
2023-12-10T10:08:01.474Z,2.80
2023-12-10T10:10:35.421Z,2.84
2023-12-10T10:13:12.056Z,2.90
2023-12-10T10:15:45.965Z,2.90
2023-12-10T10:18:19.841Z,2.90
2023-12-10T10:20:54.444Z,2.98
2023-12-10T10:23:49.298Z,3.00
2023-12-10T10:26:26.251Z,3.10
2023-12-10T10:29:00.871Z,3.10
2023-12-10T10:31:35.825Z,3.10
2023-12-10T10:34:20.980Z,3.12
2023-12-10T10:36:55.189Z,3.20
2023-12-10T10:39:32.245Z,3.30
2023-12-10T10:42:10.003Z,3.42
2023-12-10T10:44:44.479Z,3.50
2023-12-10T10:47:21.416Z,3.64
2023-12-10T10:50:20.575Z,3.80
2023-12-10T10:52:58.867Z,3.90
2023-12-10T10:55:34.324Z,4.00
2023-12-10T10:58:31.984Z,4.02
2023-12-10T11:01:07.088Z,4.10
2023-12-10T11:03:42.513Z,4.10
2023-12-10T11:06:19.937Z,4.14
2023-12-10T11:09:06.562Z,4.20
2023-12-10T11:11:44.408Z,4.20
2023-12-10T11:14:29.736Z,4.14
2023-12-10T11:17:07.896Z,4.20
2023-12-10T11:19:42.035Z,4.20
2023-12-10T11:22:16.153Z,4.30
2023-12-10T11:24:53.391Z,4.30
2023-12-10T11:27:28.608Z,4.40
2023-12-10T11:30:02.596Z,4.40
2023-12-10T11:32:39.411Z,4.40
2023-12-10T11:35:15.542Z,4.40
2023-12-10T11:37:49.634Z,4.40
2023-12-10T11:40:23.691Z,4.40
2023-12-10T11:43:03.218Z,4.40
2023-12-10T11:45:38.226Z,4.40
2023-12-10T11:48:13.346Z,4.50
2023-12-10T11:50:50.461Z,4.60
2023-12-10T11:53:24.271Z,4.70
2023-12-10T11:55:59.026Z,4.76
2023-12-10T11:59:09.114Z,4.90
2023-12-10T12:01:47.109Z,5.00
2023-12-10T12:04:21.297Z,5.12
2023-12-10T12:06:55.108Z,5.20
2023-12-10T12:09:29.409Z,5.26
2023-12-10T12:12:03.985Z,5.30
2023-12-10T12:14:38.867Z,5.40
2023-12-10T12:17:17.623Z,5.40
2023-12-10T12:19:52.174Z,5.40
2023-12-10T12:22:25.911Z,5.30
2023-12-10T12:25:31.087Z,5.26
2023-12-10T12:28:04.752Z,5.20
2023-12-10T12:30:39.587Z,5.20
2023-12-10T12:33:16.312Z,5.20
2023-12-10T12:35:49.960Z,5.20
2023-12-10T12:38:24.090Z,5.22
2023-12-10T12:40:58.628Z,5.30
2023-12-10T12:43:32.407Z,5.30
2023-12-10T12:46:06.721Z,5.32
2023-12-10T12:48:40.962Z,5.30
2023-12-10T12:51:14.663Z,5.30
2023-12-10T12:54:11.231Z,5.30
2023-12-10T12:56:42.320Z,5.20
2023-12-10T12:59:16.259Z,5.20
2023-12-10T13:01:49.837Z,5.20
2023-12-10T13:04:24.030Z,5.14
2023-12-10T13:06:58.539Z,5.10
2023-12-10T13:09:32.283Z,5.10
2023-12-10T13:12:11.080Z,5.10
2023-12-10T13:14:46.144Z,5.16
2023-12-10T13:17:19.973Z,5.20
2023-12-10T13:19:54.012Z,5.20
2023-12-10T13:22:27.583Z,5.20
2023-12-10T13:25:02.790Z,5.20
2023-12-10T13:27:36.640Z,5.18
2023-12-10T13:30:14.051Z,5.10
2023-12-10T13:32:47.685Z,5.10
2023-12-10T13:35:22.562Z,5.10
2023-12-10T13:37:56.231Z,5.10
2023-12-10T13:40:30.097Z,5.10
2023-12-10T13:43:04.214Z,5.10
2023-12-10T13:45:38.378Z,5.10
2023-12-10T13:48:12.196Z,5.10
2023-12-10T13:50:46.375Z,5.08
2023-12-10T13:53:50.132Z,5.00
2023-12-10T13:56:24.529Z,5.00
2023-12-10T13:58:58.381Z,5.00
2023-12-10T14:01:34.109Z,4.98
2023-12-10T14:04:09.766Z,4.96
2023-12-10T14:06:48.917Z,4.90
2023-12-10T14:09:23.562Z,4.90
2023-12-10T14:12:03.484Z,4.90
2023-12-10T14:14:40.203Z,4.90
2023-12-10T14:17:15.436Z,4.90
2023-12-10T14:19:53.160Z,4.90
2023-12-10T14:22:30.593Z,4.90
2023-12-10T14:25:12.771Z,4.80
2023-12-10T14:27:48.532Z,4.80
2023-12-10T14:30:24.102Z,4.78
2023-12-10T14:33:22.232Z,4.74
2023-12-10T14:36:07.948Z,4.80
2023-12-10T14:38:43.217Z,4.80
2023-12-10T14:41:22.881Z,4.80
2023-12-10T14:43:58.820Z,4.90
2023-12-10T14:46:33.458Z,4.90
2023-12-10T14:49:07.946Z,4.90
2023-12-10T14:51:48.457Z,4.90
2023-12-10T14:54:35.248Z,4.90
2023-12-10T14:57:11.356Z,4.98
2023-12-10T14:59:46.576Z,5.00
2023-12-10T15:02:21.006Z,5.00
2023-12-10T15:04:56.006Z,5.10
2023-12-10T15:07:30.097Z,5.10
2023-12-10T15:10:04.675Z,5.10
2023-12-10T15:12:47.038Z,5.10
2023-12-10T15:15:23.857Z,5.10
2023-12-10T15:18:04.097Z,5.10
2023-12-10T15:20:45.326Z,5.10
2023-12-10T15:23:23.767Z,5.10
2023-12-10T15:26:00.853Z,5.10
2023-12-10T15:28:36.383Z,5.10
2023-12-10T15:31:10.848Z,5.10
2023-12-10T15:33:44.680Z,5.10
2023-12-10T15:36:20.986Z,5.10
2023-12-10T15:38:55.086Z,5.10
2023-12-10T15:41:29.427Z,5.10
2023-12-10T15:44:03.622Z,5.08
2023-12-10T15:46:37.912Z,5.02
2023-12-10T15:49:11.810Z,5.00
2023-12-10T15:51:46.236Z,5.00
2023-12-10T15:54:20.244Z,5.00
2023-12-10T15:56:55.388Z,5.00
2023-12-10T15:59:29.276Z,5.00
2023-12-10T16:02:04.067Z,5.00
2023-12-10T16:04:37.905Z,5.00
2023-12-10T16:07:13.415Z,5.00
2023-12-10T16:09:55.768Z,5.00
2023-12-10T16:12:31.367Z,5.00
2023-12-10T16:15:06.119Z,5.10
2023-12-10T16:17:39.980Z,5.06
2023-12-10T16:20:17.558Z,5.00
2023-12-10T16:22:51.497Z,5.00
2023-12-10T16:25:25.449Z,5.00
2023-12-10T16:27:59.076Z,5.00
2023-12-10T16:30:33.813Z,5.02
2023-12-10T16:33:22.850Z,5.08
2023-12-10T16:35:57.276Z,5.00
2023-12-10T16:38:34.431Z,5.00
2023-12-10T16:41:12.496Z,5.00
2023-12-10T16:44:17.028Z,4.92
2023-12-10T16:47:00.468Z,4.90
2023-12-10T16:49:35.382Z,4.90
2023-12-10T16:52:12.782Z,4.90
2023-12-10T16:54:50.161Z,4.86
2023-12-10T16:57:30.178Z,4.84
2023-12-10T17:00:11.451Z,4.84
2023-12-10T17:02:47.969Z,4.82
2023-12-10T17:05:22.391Z,4.80
2023-12-10T17:08:01.946Z,4.80
2023-12-10T17:10:44.403Z,4.82
2023-12-10T17:13:25.297Z,4.80
2023-12-10T17:16:01.151Z,4.80
2023-12-10T17:18:47.023Z,4.80
2023-12-10T17:21:23.519Z,4.80
2023-12-10T17:24:00.724Z,4.80
2023-12-10T17:26:35.238Z,4.80
2023-12-10T17:29:09.557Z,4.80
2023-12-10T17:31:43.707Z,4.80
2023-12-10T17:34:17.998Z,4.90
2023-12-10T17:36:54.889Z,4.90
2023-12-10T17:39:31.647Z,4.90
2023-12-10T17:42:07.533Z,4.88
2023-12-10T17:44:47.527Z,4.80
2023-12-10T17:48:04.070Z,4.80
2023-12-10T17:50:38.345Z,4.80
2023-12-10T17:53:12.340Z,4.80
2023-12-10T17:55:47.377Z,4.80
2023-12-10T17:58:23.875Z,4.80
2023-12-10T18:00:58.076Z,4.80
2023-12-10T18:03:34.433Z,4.78
2023-12-10T18:06:09.627Z,4.70
2023-12-10T18:08:44.197Z,4.70
2023-12-10T18:11:20.593Z,4.70
2023-12-10T18:13:55.243Z,4.70
2023-12-10T18:16:33.501Z,4.70
2023-12-10T18:19:09.983Z,4.70
2023-12-10T18:21:43.979Z,4.70
2023-12-10T18:24:19.318Z,4.70
2023-12-10T18:26:53.104Z,4.80
2023-12-10T18:29:28.304Z,4.80
2023-12-10T18:32:03.391Z,4.86
2023-12-10T18:34:37.947Z,4.90
2023-12-10T18:37:12.403Z,4.90
2023-12-10T18:39:47.156Z,4.90
2023-12-10T18:42:21.663Z,4.90
2023-12-10T18:44:56.037Z,5.00
2023-12-10T18:50:50.843Z,5.00
2023-12-10T18:53:25.162Z,5.00
2023-12-10T18:56:00.098Z,5.00
2023-12-10T18:58:39.543Z,4.90
2023-12-10T19:01:13.427Z,4.90
2023-12-10T19:03:49.811Z,4.88
2023-12-10T19:06:28.110Z,4.80
2023-12-10T19:09:02.286Z,4.80
2023-12-10T19:11:36.460Z,4.80
2023-12-10T19:14:12.064Z,4.80
2023-12-10T19:16:46.108Z,4.70
2023-12-10T19:19:21.157Z,4.70
2023-12-10T19:21:55.285Z,4.62
2023-12-10T19:24:29.653Z,4.60
2023-12-10T19:27:03.332Z,4.60
2023-12-10T19:29:37.402Z,4.60
2023-12-10T19:32:12.386Z,4.52
2023-12-10T19:34:46.133Z,4.54
2023-12-10T19:37:22.676Z,4.50
2023-12-10T19:39:56.600Z,4.52
2023-12-10T19:42:30.786Z,4.56
2023-12-10T19:45:05.602Z,4.60
2023-12-10T19:47:40.934Z,4.60
2023-12-10T19:50:15.305Z,4.60
2023-12-10T19:52:49.679Z,4.60
2023-12-10T19:55:24.133Z,4.66
2023-12-10T19:57:58.108Z,4.60
2023-12-10T20:00:33.736Z,4.60
2023-12-10T20:03:08.069Z,4.60
2023-12-10T20:05:44.172Z,4.60
2023-12-10T20:08:21.020Z,4.60
2023-12-10T20:11:06.273Z,4.60
2023-12-10T20:13:40.346Z,4.70
2023-12-10T20:16:20.525Z,4.70
2023-12-10T20:18:54.353Z,4.72
2023-12-10T20:21:28.473Z,4.80
2023-12-10T20:24:02.950Z,4.80
2023-12-10T20:26:49.958Z,4.80
2023-12-10T20:29:24.202Z,4.80
2023-12-10T20:31:58.184Z,4.70
2023-12-10T20:34:35.117Z,4.70
2023-12-10T20:37:14.437Z,4.60
2023-12-10T20:39:51.230Z,4.60
2023-12-10T20:42:28.207Z,4.60
2023-12-10T20:45:02.756Z,4.60
2023-12-10T20:47:40.611Z,4.60
2023-12-10T20:50:16.685Z,4.60
2023-12-10T20:52:52.007Z,4.60
2023-12-10T20:55:26.084Z,4.60
2023-12-10T20:58:00.362Z,4.60
2023-12-10T21:00:35.703Z,4.60
2023-12-10T21:03:11.210Z,4.60
2023-12-10T21:05:48.416Z,4.60
2023-12-10T21:08:27.589Z,4.60
2023-12-10T21:11:04.256Z,4.64
2023-12-10T21:13:38.212Z,4.66
2023-12-10T21:16:12.385Z,4.70
2023-12-10T21:18:46.513Z,4.70
2023-12-10T21:21:22.529Z,4.70
2023-12-10T21:23:57.122Z,4.70
2023-12-10T21:26:36.742Z,4.70
2023-12-10T21:29:11.138Z,4.70
2023-12-10T21:31:44.794Z,4.70
2023-12-10T21:34:18.549Z,4.80
2023-12-10T21:36:56.340Z,4.80
2023-12-10T21:39:41.887Z,4.80
2023-12-10T21:42:15.746Z,4.82
2023-12-10T21:44:49.545Z,4.86
2023-12-10T21:47:23.999Z,4.90
2023-12-10T21:50:03.884Z,4.90
2023-12-10T21:52:41.163Z,4.90
2023-12-10T21:55:18.237Z,4.90
2023-12-10T21:57:52.270Z,4.90
2023-12-10T22:00:26.628Z,4.92
2023-12-10T22:03:01.165Z,4.96
2023-12-10T22:05:36.596Z,4.94
2023-12-10T22:08:10.721Z,5.00
2023-12-10T22:10:45.416Z,4.96
2023-12-10T22:13:19.343Z,4.98
2023-12-10T22:15:56.525Z,5.00
2023-12-10T22:18:30.147Z,5.00
2023-12-10T22:21:03.916Z,5.00
2023-12-10T22:23:37.500Z,5.00
2023-12-10T22:26:12.755Z,5.00
2023-12-10T22:28:46.746Z,5.00
2023-12-10T22:31:20.920Z,5.00
2023-12-10T22:33:54.679Z,4.90
2023-12-10T22:36:32.808Z,4.90
2023-12-10T22:39:09.469Z,4.90
2023-12-10T22:41:43.446Z,4.84
2023-12-10T22:44:16.917Z,4.80
2023-12-10T22:46:50.921Z,4.80
2023-12-10T22:49:25.066Z,4.72
2023-12-10T22:51:58.881Z,4.70
2023-12-10T22:54:32.502Z,4.70
2023-12-10T22:57:09.230Z,4.70
2023-12-10T22:59:44.215Z,4.70
2023-12-10T23:02:19.455Z,4.70
2023-12-10T23:05:01.211Z,4.70
2023-12-10T23:07:34.933Z,4.70
2023-12-10T23:10:10.527Z,4.68
2023-12-10T23:12:44.250Z,4.66
2023-12-10T23:15:21.111Z,4.68
2023-12-10T23:17:55.795Z,4.70
2023-12-10T23:20:29.877Z,4.70
2023-12-10T23:23:03.808Z,4.70
2023-12-10T23:25:41.095Z,4.70
2023-12-10T23:28:14.924Z,4.78
2023-12-10T23:30:51.301Z,4.74
2023-12-10T23:33:25.731Z,4.76
2023-12-10T23:35:59.668Z,4.80
2023-12-10T23:38:33.610Z,4.80
2023-12-10T23:41:09.348Z,4.80
2023-12-10T23:43:45.246Z,4.80
2023-12-10T23:46:19.019Z,4.80
2023-12-10T23:48:53.180Z,4.80
2023-12-10T23:51:27.369Z,4.80
2023-12-10T23:54:01.412Z,4.90
2023-12-10T23:56:35.499Z,4.90
2023-12-10T23:59:11.368Z,4.90
